createdAt,value
2022-12-28T00:12:24.593Z,24.6771
2022-12-28T00:27:26.643Z,25.064
2022-12-28T00:42:28.632Z,26.091
2022-12-28T00:57:30.558Z,25.9907
2022-12-28T01:12:37.940Z,24.8498
2022-12-28T01:27:40.304Z,23.842
2022-12-28T01:42:42.264Z,21.0433
2022-12-28T01:57:44.164Z,22.4956
2022-12-28T02:12:46.146Z,22.6782
2022-12-28T02:27:48.156Z,23.1951
2022-12-28T02:42:50.266Z,23.5492
2022-12-28T02:57:52.209Z,23.3734
2022-12-28T03:12:54.127Z,24.8591
2022-12-28T03:27:56.356Z,24.0562
2022-12-28T03:42:58.258Z,23.0812
2022-12-28T03:58:00.302Z,24.2543
2022-12-28T04:13:02.267Z,24.544
2022-12-28T04:28:04.226Z,25.402
2022-12-28T04:43:06.192Z,26.1139
2022-12-28T04:58:08.090Z,24.5762
2022-12-28T05:13:09.991Z,23.5492
2022-12-28T05:28:12.211Z,23.6334
2022-12-28T05:43:14.115Z,21.8815
2022-12-28T05:58:16.060Z,22.7618
2022-12-28T06:13:17.990Z,22.0697
2022-12-28T06:28:19.987Z,20.8638
2022-12-28T06:43:21.985Z,21.7218
2022-12-28T06:58:23.919Z,20.6459
2022-12-28T07:13:28.355Z,19.5799
2022-12-28T07:28:30.471Z,20.5159
2022-12-28T07:43:32.405Z,19.947
2022-12-28T07:58:34.367Z,19.9761
2022-12-28T08:13:36.261Z,19.4561
2022-12-28T08:28:38.431Z,19.7
2022-12-28T08:43:40.406Z,19.089
2022-12-28T08:58:42.471Z,18.7312
2022-12-28T09:13:44.412Z,20.2553
2022-12-28T09:28:46.382Z,19.0661
2022-12-28T09:43:48.309Z,18.5783
2022-12-28T09:58:50.224Z,18.9522
2022-12-28T10:13:54.985Z,19.6282
2022-12-28T10:28:57.433Z,18.8092
2022-12-28T10:44:37.482Z,18.1722
2022-12-28T10:59:40.792Z,19.6251
2022-12-28T11:14:42.753Z,18.9361
2022-12-28T11:29:44.744Z,18.5362
2022-12-28T11:44:46.713Z,17.7073
2022-12-28T11:59:48.713Z,19.4914
2022-12-28T12:14:50.644Z,19.1503
2022-12-28T12:29:52.589Z,18.1852
2022-12-28T12:44:54.522Z,18.5783
2022-12-28T12:59:56.731Z,19.2642
2022-12-28T13:14:58.732Z,18.7733
2022-12-28T13:30:00.673Z,18.1852
2022-12-28T13:45:02.678Z,19.5824
2022-12-28T14:00:04.576Z,18.7021
2022-12-28T14:15:06.499Z,18.1462
2022-12-28T14:30:08.499Z,17.3662
2022-12-28T14:45:10.578Z,19.4883
2022-12-28T15:00:13.688Z,18.4842
2022-12-28T15:15:15.904Z,18.3963
2022-12-28T15:30:20.619Z,18.7145
2022-12-28T15:45:26.337Z,19.2184
2022-12-28T16:00:28.350Z,18.3833
2022-12-28T16:15:30.294Z,17.7562
2022-12-28T16:30:32.249Z,19.2803
2022-12-28T16:45:34.343Z,18.5851
2022-12-28T17:00:36.387Z,18.1233
2022-12-28T17:15:38.351Z,18.7993
2022-12-28T17:30:40.457Z,20.5122
2022-12-28T17:45:42.398Z,19.8009
2022-12-28T18:00:44.418Z,19.3001
2022-12-28T18:15:46.349Z,18.946
2022-12-28T18:30:48.509Z,19.9371
2022-12-28T18:45:50.513Z,19.908
2022-12-28T19:00:52.491Z,19.0011
2022-12-28T19:15:54.444Z,19.2902
2022-12-28T19:31:02.676Z,18.3709
2022-12-28T19:46:06.681Z,18.7962
2022-12-28T20:01:08.789Z,19.5663
2022-12-28T20:16:10.779Z,21.2241
2022-12-28T20:31:12.916Z,19.6938
2022-12-28T20:46:15.118Z,19.401
2022-12-28T21:01:17.380Z,19.206
2022-12-28T21:16:19.505Z,19.648
2022-12-28T21:31:21.603Z,19.9408
2022-12-28T21:46:23.599Z,19.206
2022-12-28T22:01:25.728Z,18.764
2022-12-28T22:16:27.897Z,19.895
2022-12-28T22:31:29.939Z,22.443
2022-12-28T22:46:32.060Z,22.885
2022-12-28T23:01:34.184Z,23.2979
2022-12-28T23:16:36.257Z,23.1549
2022-12-28T23:31:38.314Z,23.4706
2022-12-28T23:46:40.239Z,24.2537
